Time;durP1;ratioP1;P1;durP2;ratioP2;P2;SDS_P1;SDS_P2;PMS_P1;PMS_P2;Temp;Humidity;BMP_temperature;BMP_pressure;BME280_temperature;BME280_humidity;BME280_pressure;Samples;Min_cycle;Max_cycle;Signal;HPM_P1;HPM_P2
2023/10/18 00:02:02;;;;;;;32.85;13.88;;;5.30;99.90;;;;;;5014562;28;20125;-67
2023/10/18 00:04:28;;;;;;;33.33;15.30;;;5.40;99.90;;;;;;5001703;28;20125;-67
2023/10/18 00:06:55;;;;;;;32.47;15.52;;;5.40;99.90;;;;;;4994105;28;20045;-67
2023/10/18 00:09:42;;;;;;;36.15;15.07;;;5.40;99.90;;;;;;4992649;28;20049;-67
2023/10/18 00:12:08;;;;;;;32.88;14.63;;;5.40;99.90;;;;;;5002621;28;20038;-67
2023/10/18 00:14:34;;;;;;;32.00;16.20;;;5.30;99.90;;;;;;5013816;28;20477;-69
2023/10/18 00:17:00;;;;;;;34.22;15.73;;;5.30;99.90;;;;;;4997011;28;20481;-69
2023/10/18 00:19:26;;;;;;;31.67;16.05;;;5.30;99.90;;;;;;5007262;28;20042;-67
2023/10/18 00:21:52;;;;;;;36.63;16.30;;;5.30;99.90;;;;;;5009367;28;20121;-68
2023/10/18 00:24:18;;;;;;;34.80;16.98;;;5.30;99.90;;;;;;5014088;28;20457;-68
2023/10/18 00:26:44;;;;;;;34.28;16.58;;;5.40;99.90;;;;;;5011621;28;20046;-68
2023/10/18 00:29:10;;;;;;;35.03;16.77;;;5.30;99.90;;;;;;5005525;28;20486;-68
2023/10/18 00:31:36;;;;;;;35.67;17.17;;;5.30;99.90;;;;;;5014089;28;20052;-68
2023/10/18 00:34:04;;;;;;;40.88;17.58;;;5.20;99.90;;;;;;5014024;28;20065;-68
2023/10/18 00:36:32;;;;;;;38.33;17.55;;;5.20;99.90;;;;;;4980725;28;20038;-68
2023/10/18 00:38:57;;;;;;;37.95;17.95;;;5.20;99.90;;;;;;5011205;28;20049;-68
2023/10/18 00:41:32;;;;;;;36.85;16.20;;;5.20;99.90;;;;;;5014097;28;20038;-68
2023/10/18 00:44:00;;;;;;;41.35;17.20;;;5.30;99.90;;;;;;4995276;28;20430;-67
2023/10/18 00:46:28;;;;;;;38.80;17.70;;;5.20;99.90;;;;;;5011289;28;20048;-67
2023/10/18 00:48:54;;;;;;;36.80;17.70;;;5.20;99.90;;;;;;4996079;28;20038;-67
2023/10/18 00:51:21;;;;;;;37.42;17.50;;;5.20;99.90;;;;;;4996328;28;20107;-67
2023/10/18 00:53:48;;;;;;;36.53;17.60;;;5.20;99.90;;;;;;4985639;28;20050;-67
2023/10/18 00:56:15;;;;;;;42.22;17.38;;;5.20;99.90;;;;;;5010941;28;20531;-67
2023/10/18 00:58:41;;;;;;;40.33;18.52;;;5.10;99.90;;;;;;5013555;28;20125;-69
2023/10/18 01:01:10;;;;;;;42.03;18.25;;;5.10;99.90;;;;;;4984661;28;20520;-69
2023/10/18 01:03:46;;;;;;;38.75;18.02;;;5.10;99.90;;;;;;5008784;28;20077;-69
2023/10/18 01:06:17;;;;;;;42.22;17.02;;;5.10;99.90;;;;;;4996318;28;20183;-69
2023/10/18 01:08:49;;;;;;;39.72;18.95;;;5.10;99.90;;;;;;4996092;28;20046;-69
2023/10/18 01:11:22;;;;;;;37.88;18.20;;;5.10;99.90;;;;;;5003546;28;20181;-68
2023/10/18 01:13:48;;;;;;;41.58;18.30;;;5.10;99.90;;;;;;5008985;28;20038;-69
2023/10/18 01:16:20;;;;;;;41.50;19.00;;;5.10;99.90;;;;;;5008666;28;20490;-69
2023/10/18 01:18:47;;;;;;;37.63;18.27;;;5.10;99.90;;;;;;4995043;28;20059;-69
2023/10/18 01:21:19;;;;;;;44.05;19.48;;;5.10;99.90;;;;;;5012314;28;20041;-68
2023/10/18 01:23:53;;;;;;;45.72;19.35;;;5.20;99.90;;;;;;5013584;28;20053;-68
2023/10/18 01:26:21;;;;;;;42.97;18.70;;;5.20;99.90;;;;;;5003753;28;20391;-69
2023/10/18 01:28:47;;;;;;;45.40;19.83;;;5.20;99.90;;;;;;5013281;28;20045;-69
2023/10/18 01:31:12;;;;;;;43.45;19.40;;;5.20;99.90;;;;;;4995789;28;20640;-69
2023/10/18 01:33:40;;;;;;;49.33;20.25;;;5.30;99.90;;;;;;5003767;28;20048;-69
2023/10/18 01:36:07;;;;;;;45.83;20.08;;;5.30;99.90;;;;;;5008523;28;20414;-68
2023/10/18 01:38:33;;;;;;;48.17;20.58;;;5.30;99.90;;;;;;4995379;28;20088;-69
2023/10/18 01:41:08;;;;;;;43.53;19.30;;;5.30;99.90;;;;;;5013556;28;20045;-69
2023/10/18 01:43:36;;;;;;;45.80;20.38;;;5.30;99.90;;;;;;5005285;28;20044;-69
2023/10/18 01:46:04;;;;;;;49.00;21.23;;;5.30;99.90;;;;;;4992372;28;20042;-69
2023/10/18 01:48:37;;;;;;;45.58;19.90;;;5.30;99.90;;;;;;4995152;28;20544;-69
2023/10/18 01:51:06;;;;;;;46.00;20.02;;;5.30;99.90;;;;;;5000579;28;20042;-69
2023/10/18 01:53:33;;;;;;;43.22;19.60;;;5.40;99.90;;;;;;4994620;28;20041;-67
2023/10/18 01:56:01;;;;;;;44.83;19.38;;;5.40;99.90;;;;;;4994729;28;20042;-68
2023/10/18 01:58:27;;;;;;;46.92;20.65;;;5.30;99.90;;;;;;4995076;28;20096;-68
2023/10/18 02:00:56;;;;;;;47.05;19.90;;;5.30;99.90;;;;;;4999661;28;20470;-68
2023/10/18 02:03:22;;;;;;;44.88;20.38;;;5.40;99.90;;;;;;5009694;28;20034;-67
2023/10/18 02:05:48;;;;;;;46.97;20.88;;;5.40;99.90;;;;;;5012075;28;20042;-67
2023/10/18 02:08:15;;;;;;;45.83;20.70;;;5.40;99.90;;;;;;4975083;28;20046;-67
2023/10/18 02:10:49;;;;;;;47.45;20.83;;;5.40;99.90;;;;;;5005216;28;20049;-67
2023/10/18 02:13:15;;;;;;;49.03;21.42;;;5.40;99.90;;;;;;4994402;28;20050;-67
2023/10/18 02:15:41;;;;;;;45.65;19.73;;;5.40;99.90;;;;;;5011845;28;20095;-67
2023/10/18 02:18:10;;;;;;;46.38;20.70;;;5.40;99.90;;;;;;4988984;28;20037;-68
2023/10/18 02:20:50;;;;;;;45.83;20.73;;;5.40;99.90;;;;;;4988799;28;20042;-68
2023/10/18 02:23:16;;;;;;;49.63;20.67;;;5.40;99.90;;;;;;5008567;28;20034;-68
2023/10/18 02:28:27;;;;;;;46.65;21.38;;;5.40;99.90;;;;;;4994097;28;20064;-67
2023/10/18 02:30:57;;;;;;;50.17;21.33;;;5.50;99.90;;;;;;5012419;28;20038;-67
2023/10/18 02:33:36;;;;;;;51.25;21.73;;;5.50;99.90;;;;;;4992334;28;20104;-68
2023/10/18 02:36:07;;;;;;;51.97;21.58;;;5.40;99.90;;;;;;5009470;28;20141;-67
2023/10/18 02:38:33;;;;;;;47.05;20.58;;;5.50;99.90;;;;;;4994163;28;20050;-68
2023/10/18 02:41:04;;;;;;;48.67;21.80;;;5.50;99.90;;;;;;4987857;28;20041;-68
2023/10/18 02:43:29;;;;;;;50.33;21.38;;;5.50;99.90;;;;;;5006781;28;20117;-67
2023/10/18 02:45:55;;;;;;;54.20;22.42;;;5.50;99.90;;;;;;4993966;28;20461;-67
2023/10/18 02:48:24;;;;;;;46.25;20.73;;;5.50;99.90;;;;;;4994164;28;20046;-67
2023/10/18 02:50:54;;;;;;;52.15;20.50;;;5.50;99.90;;;;;;4998710;28;20401;-67
2023/10/18 02:53:20;;;;;;;48.60;21.73;;;5.50;99.90;;;;;;4993258;28;20077;-68
2023/10/18 02:55:55;;;;;;;46.22;21.33;;;5.50;99.90;;;;;;4993829;28;20469;-68
2023/10/18 02:58:21;;;;;;;42.05;20.52;;;5.50;99.90;;;;;;5002268;28;20046;-69
2023/10/18 03:00:47;;;;;;;43.13;20.58;;;5.50;99.90;;;;;;4999053;28;20437;-69
2023/10/18 03:03:13;;;;;;;44.50;21.13;;;5.50;99.90;;;;;;5011800;28;20100;-68
2023/10/18 03:05:42;;;;;;;50.28;22.50;;;5.40;99.90;;;;;;4991406;28;20048;-69
2023/10/18 03:08:08;;;;;;;43.97;20.70;;;5.40;99.90;;;;;;4986480;28;20085;-69
2023/10/18 03:10:45;;;;;;;52.47;22.65;;;5.30;99.90;;;;;;4993950;28;20196;-69
2023/10/18 03:13:14;;;;;;;51.90;22.45;;;5.20;99.90;;;;;;4990070;28;20394;-67
2023/10/18 03:16:38;;;;;;;46.97;21.25;;;5.20;99.90;;;;;;4992748;28;20490;-67
2023/10/18 03:18:28;;;;;;;46.13;20.60;;;5.20;99.90;;;;;;4993714;28;20046;-67
2023/10/18 03:20:57;;;;;;;45.95;21.35;;;5.30;99.90;;;;;;5010762;28;20387;-68
2023/10/18 03:23:26;;;;;;;48.10;21.85;;;5.30;99.90;;;;;;5011986;28;20397;-68
2023/10/18 03:26:03;;;;;;;46.90;21.55;;;5.30;99.90;;;;;;5015237;28;20472;-69
2023/10/18 03:28:35;;;;;;;50.25;21.30;;;5.30;99.90;;;;;;4988177;28;20034;-68
2023/10/18 03:31:12;;;;;;;44.97;20.65;;;5.40;99.90;;;;;;4989287;28;20374;-68
2023/10/18 03:33:37;;;;;;;48.95;20.13;;;5.40;99.90;;;;;;5010645;28;20049;-68
2023/10/18 03:36:22;;;;;;;46.40;20.42;;;5.40;99.90;;;;;;5015047;28;20041;-68
2023/10/18 03:38:56;;;;;;;44.72;20.55;;;5.40;99.90;;;;;;5011069;28;20054;-68
2023/10/18 03:41:25;;;;;;;44.97;20.23;;;5.40;99.90;;;;;;5008795;28;20061;-66
2023/10/18 03:44:03;;;;;;;45.95;20.30;;;5.40;99.90;;;;;;5014764;28;20037;-69
2023/10/18 03:46:29;;;;;;;45.10;20.10;;;5.40;99.90;;;;;;5005463;28;20153;-69
2023/10/18 03:48:56;;;;;;;46.55;22.42;;;5.30;99.90;;;;;;4998534;28;20453;-68
2023/10/18 03:51:25;;;;;;;48.05;21.00;;;5.30;99.90;;;;;;5005927;28;20057;-68
2023/10/18 03:53:54;;;;;;;43.47;20.63;;;5.30;99.90;;;;;;5014991;28;20390;-68
2023/10/18 03:56:22;;;;;;;43.67;20.88;;;5.30;99.90;;;;;;4993183;28;20059;-67
2023/10/18 03:58:49;;;;;;;47.75;22.40;;;5.30;99.90;;;;;;5014815;28;20085;-69
2023/10/18 04:01:21;;;;;;;40.80;19.90;;;5.40;99.90;;;;;;5014517;28;20113;-68
2023/10/18 04:03:49;;;;;;;42.88;20.33;;;5.40;99.90;;;;;;4987520;28;20089;-68
2023/10/18 04:06:21;;;;;;;43.42;20.52;;;5.40;99.90;;;;;;4995502;28;20057;-68
2023/10/18 04:08:47;;;;;;;49.03;21.27;;;5.40;99.90;;;;;;4997353;28;20046;-68
2023/10/18 04:11:13;;;;;;;44.50;21.58;;;5.50;99.90;;;;;;4997350;28;20087;-68
2023/10/18 04:13:39;;;;;;;49.88;22.63;;;5.40;99.90;;;;;;5009747;28;20126;-68
2023/10/18 04:16:10;;;;;;;45.50;20.90;;;5.40;99.90;;;;;;5004637;28;20509;-68
2023/10/18 04:18:36;;;;;;;;;;;5.40;99.90;;;;;;5014904;28;20041;-68
2023/10/18 04:21:14;;;;;;;46.20;20.70;;;5.40;99.90;;;;;;4988451;28;19917;-67
2023/10/18 04:23:45;;;;;;;48.20;21.77;;;5.30;99.90;;;;;;4976821;28;20046;-68
2023/10/18 04:26:18;;;;;;;48.60;21.25;;;5.30;99.90;;;;;;5014663;28;20046;-68
2023/10/18 04:28:45;;;;;;;47.22;21.25;;;5.30;99.90;;;;;;5014234;28;20047;-68
2023/10/18 04:31:14;;;;;;;48.80;22.38;;;5.20;99.90;;;;;;5012947;28;20037;-68
2023/10/18 04:33:49;;;;;;;51.78;21.48;;;5.20;99.90;;;;;;4996555;28;20042;-68
2023/10/18 04:36:16;;;;;;;44.80;21.35;;;5.10;99.90;;;;;;4993663;28;20045;-69
2023/10/18 04:38:44;;;;;;;48.72;21.95;;;5.20;99.90;;;;;;5008175;28;20104;-69
2023/10/18 04:41:23;;;;;;;47.50;21.23;;;5.10;99.90;;;;;;4995942;28;20038;-69
2023/10/18 04:46:31;;;;;;;44.83;20.80;;;5.10;99.90;;;;;;4992216;28;20126;-68
2023/10/18 04:51:27;;;;;;;45.20;20.85;;;5.20;99.90;;;;;;4989552;28;20043;-67
2023/10/18 04:54:01;;;;;;;44.28;21.55;;;5.20;99.90;;;;;;5001963;28;20117;-69
2023/10/18 04:56:32;;;;;;;44.67;20.73;;;5.30;99.90;;;;;;4997687;28;20120;-68
2023/10/18 04:59:06;;;;;;;42.00;20.05;;;5.20;99.90;;;;;;5007259;28;20640;-67
2023/10/18 05:01:36;;;;;;;44.30;21.15;;;5.20;99.90;;;;;;4990331;28;20050;-69
2023/10/18 05:04:18;;;;;;;42.85;20.20;;;5.20;99.90;;;;;;5013094;28;20168;-69
2023/10/18 05:06:55;;;;;;;46.28;20.35;;;5.20;99.90;;;;;;4991956;28;20049;-67
2023/10/18 05:09:32;;;;;;;44.80;20.65;;;5.20;99.90;;;;;;5012747;28;20486;-67
2023/10/18 05:14:50;;;;;;;42.00;20.63;;;5.20;99.90;;;;;;4994859;28;20054;-67
2023/10/18 05:17:22;;;;;;;44.53;21.20;;;5.30;99.90;;;;;;4995768;28;20053;-68
2023/10/18 05:19:49;;;;;;;41.30;20.75;;;5.30;99.90;;;;;;4987648;28;20125;-68
2023/10/18 05:22:24;;;;;;;45.38;21.73;;;5.20;99.90;;;;;;5007591;28;21468;-66
2023/10/18 05:27:46;;;;;;;48.65;21.55;;;5.20;99.90;;;;;;5005327;28;20466;-69
2023/10/18 05:30:16;;;;;;;48.63;22.40;;;5.20;99.90;;;;;;5008941;28;20128;-68
2023/10/18 05:35:27;;;;;;;46.83;21.70;;;5.20;99.90;;;;;;4989503;28;20050;-69
2023/10/18 05:38:06;;;;;;;44.40;21.63;;;5.20;99.90;;;;;;5008664;28;20104;-68
2023/10/18 05:43:23;;;;;;;47.38;22.20;;;5.20;99.90;;;;;;4991930;28;20054;-68
2023/10/18 05:45:53;;;;;;;46.53;22.70;;;5.20;99.90;;;;;;4982918;28;20510;-68
2023/10/18 05:48:22;;;;;;;42.28;19.98;;;5.20;99.90;;;;;;5011572;28;20049;-67
2023/10/18 05:51:34;;;;;;;44.10;21.17;;;5.20;99.90;;;;;;5011854;28;20041;-67
2023/10/18 05:53:34;;;;;;;43.72;21.35;;;5.30;99.90;;;;;;4972150;28;20081;-68
2023/10/18 05:56:00;;;;;;;41.22;20.85;;;5.30;99.90;;;;;;5007464;28;20048;-69
2023/10/18 05:58:25;;;;;;;39.40;18.55;;;5.30;99.90;;;;;;4991869;28;20049;-67
2023/10/18 06:00:55;;;;;;;46.67;20.17;;;5.30;99.90;;;;;;4981529;28;20061;-68
2023/10/18 06:03:27;;;;;;;40.03;20.33;;;5.30;99.90;;;;;;4990947;28;20053;-67
2023/10/18 06:05:55;;;;;;;40.05;19.88;;;5.30;99.90;;;;;;5009178;28;20042;-66
2023/10/18 06:08:22;;;;;;;40.50;19.05;;;5.30;99.90;;;;;;5004995;28;20049;-67
2023/10/18 06:10:53;;;;;;;40.25;20.52;;;5.40;99.90;;;;;;5006372;28;20042;-67
2023/10/18 06:13:22;;;;;;;40.33;19.23;;;5.40;99.90;;;;;;5010381;28;20033;-67
2023/10/18 06:15:50;;;;;;;36.78;20.25;;;5.40;99.90;;;;;;5012156;28;20085;-68
2023/10/18 06:18:31;;;;;;;38.55;18.90;;;5.40;99.90;;;;;;5004224;28;20265;-69
2023/10/18 06:20:59;;;;;;;42.45;19.40;;;5.40;99.90;;;;;;5008681;28;20040;-69
2023/10/18 06:23:37;;;;;;;39.67;19.55;;;5.40;99.90;;;;;;5011607;28;20409;-69
2023/10/18 06:28:53;;;;;;;37.05;18.83;;;5.40;99.90;;;;;;4989588;28;20521;-67
2023/10/18 06:31:20;;;;;;;39.90;19.42;;;5.40;99.90;;;;;;5019988;28;20097;-68
2023/10/18 06:33:51;;;;;;;38.63;19.63;;;5.50;99.90;;;;;;4988987;28;20383;-67
2023/10/18 06:36:18;;;;;;;41.38;20.80;;;5.50;99.90;;;;;;4985346;28;20045;-67
2023/10/18 06:38:44;;;;;;;37.55;19.15;;;5.50;99.90;;;;;;5003560;28;20100;-67
2023/10/18 06:41:22;;;;;;;42.05;20.58;;;5.50;99.90;;;;;;5011243;28;20406;-67
2023/10/18 06:43:49;;;;;;;37.25;19.92;;;5.50;99.90;;;;;;5011144;28;20486;-68
2023/10/18 06:46:22;;;;;;;41.50;20.02;;;5.50;99.90;;;;;;4990367;28;20584;-69
2023/10/18 06:48:50;;;;;;;38.53;19.70;;;5.50;99.90;;;;;;5006946;28;20042;-69
2023/10/18 06:51:18;;;;;;;37.22;19.33;;;5.50;99.90;;;;;;4998398;28;20045;-69
2023/10/18 06:53:50;;;;;;;41.03;19.98;;;5.60;99.90;;;;;;5008024;28;20446;-69
2023/10/18 06:56:22;;;;;;;38.85;19.75;;;5.60;99.90;;;;;;4993146;28;20042;-69
2023/10/18 06:58:48;;;;;;;40.47;20.17;;;5.60;99.90;;;;;;5005137;28;20076;-69
2023/10/18 07:01:32;;;;;;;39.40;19.75;;;5.70;99.90;;;;;;5014346;28;20125;-69
2023/10/18 07:03:58;;;;;;;42.30;19.02;;;5.70;99.90;;;;;;5011026;28;20076;-69
2023/10/18 07:06:29;;;;;;;40.25;18.35;;;5.80;99.90;;;;;;4988926;28;20050;-69
2023/10/18 07:08:56;;;;;;;35.38;17.73;;;5.90;99.90;;;;;;5004255;28;20050;-69
2023/10/18 07:11:23;;;;;;;34.63;19.13;;;5.90;99.90;;;;;;5005810;28;20134;-69
2023/10/18 07:13:53;;;;;;;36.22;18.20;;;5.90;99.90;;;;;;4997473;28;20669;-69
2023/10/18 07:19:23;;;;;;;33.55;17.65;;;6.00;99.90;;;;;;5012960;28;20324;-69
2023/10/18 07:21:51;;;;;;;32.10;17.58;;;6.10;99.90;;;;;;5015292;28;20042;-69
2023/10/18 07:24:20;;;;;;;35.10;18.88;;;6.10;99.90;;;;;;5007809;28;20145;-69
2023/10/18 07:26:47;;;;;;;35.22;18.17;;;6.20;99.90;;;;;;4989295;28;20041;-69
2023/10/18 07:29:20;;;;;;;33.33;18.00;;;6.20;99.90;;;;;;4997578;28;20073;-69
2023/10/18 07:31:46;;;;;;;35.38;18.48;;;6.30;99.90;;;;;;4998159;28;20051;-69
2023/10/18 07:34:19;;;;;;;33.08;18.13;;;6.30;99.90;;;;;;4980076;28;20414;-69
2023/10/18 07:36:46;;;;;;;33.05;17.15;;;6.40;99.90;;;;;;5003348;28;20038;-69
2023/10/18 07:39:13;;;;;;;35.35;17.88;;;6.40;99.90;;;;;;5014857;28;20516;-69
2023/10/18 07:41:40;;;;;;;32.47;17.30;;;6.50;99.90;;;;;;4987463;28;20038;-69
2023/10/18 07:44:06;;;;;;;30.20;16.13;;;6.50;99.90;;;;;;5012561;28;20057;-69
2023/10/18 07:46:44;;;;;;;31.92;16.23;;;6.60;99.90;;;;;;4997366;28;20057;-69
2023/10/18 07:49:14;;;;;;;32.20;15.70;;;6.60;99.90;;;;;;4993669;28;20660;-69
2023/10/18 07:51:55;;;;;;;27.95;16.23;;;6.60;99.90;;;;;;5008007;28;20050;-69
2023/10/18 07:54:22;;;;;;;30.23;16.80;;;6.70;99.90;;;;;;4996972;28;20042;-69
2023/10/18 07:56:54;;;;;;;29.13;16.48;;;6.70;99.90;;;;;;5010104;28;20034;-69
2023/10/18 07:59:28;;;;;;;31.63;17.05;;;6.70;99.90;;;;;;4996338;28;20114;-69
2023/10/18 08:04:42;;;;;;;29.15;16.50;;;6.90;99.90;;;;;;4996568;28;20042;-69
2023/10/18 08:07:15;;;;;;;27.63;15.57;;;7.00;99.90;;;;;;4982640;28;20046;-69
2023/10/18 08:09:42;;;;;;;28.27;15.70;;;7.00;99.90;;;;;;4991628;28;20049;-69
2023/10/18 08:14:50;;;;;;;27.83;15.65;;;7.10;99.90;;;;;;4979504;28;20050;-69
2023/10/18 08:17:42;;;;;;;28.00;15.45;;;7.20;99.90;;;;;;5008629;28;20049;-69
2023/10/18 08:22:47;;;;;;;28.27;15.60;;;7.30;99.90;;;;;;5004173;28;20045;-69
2023/10/18 08:28:13;;;;;;;25.88;14.20;;;7.50;99.90;;;;;;4960836;28;20129;-70
2023/10/18 08:33:07;;;;;;;25.90;13.80;;;7.60;99.90;;;;;;4994841;28;20463;-68
2023/10/18 08:35:37;;;;;;;27.40;14.77;;;7.70;99.90;;;;;;5017205;28;20117;-69
2023/10/18 08:38:03;;;;;;;25.98;13.95;;;7.80;99.90;;;;;;4996936;28;20092;-67
2023/10/18 08:43:28;;;;;;;28.77;13.48;;;8.00;99.90;;;;;;5012943;28;20044;-69
2023/10/18 08:45:55;;;;;;;26.20;13.65;;;8.00;99.90;;;;;;5014287;28;20042;-69
2023/10/18 08:48:28;;;;;;;22.48;13.82;;;8.10;99.90;;;;;;4999262;28;20450;-69
2023/10/18 08:50:59;;;;;;;23.15;12.98;;;8.10;99.90;;;;;;5010853;28;20044;-69
2023/10/18 08:53:26;;;;;;;23.23;13.30;;;8.20;99.90;;;;;;5004196;28;20037;-69
2023/10/18 08:55:57;;;;;;;22.90;13.18;;;8.30;99.90;;;;;;5003181;28;20411;-69
2023/10/18 08:58:27;;;;;;;21.97;12.93;;;8.30;99.90;;;;;;5018910;28;20070;-68
2023/10/18 09:03:29;;;;;;;22.80;13.15;;;8.40;99.90;;;;;;5003329;28;20076;-70
2023/10/18 09:06:04;;;;;;;22.92;14.02;;;8.50;99.90;;;;;;4992817;28;20050;-69
2023/10/18 09:09:00;;;;;;;22.27;13.27;;;8.60;99.90;;;;;;5006082;28;20042;-68
2023/10/18 09:11:23;;;;;;;25.10;12.80;;;8.60;99.90;;;;;;5004899;28;20405;-68
2023/10/18 09:14:08;;;;;;;21.80;12.85;;;8.70;99.90;;;;;;4995731;28;20556;-69
2023/10/18 09:16:38;;;;;;;24.10;12.70;;;8.80;99.90;;;;;;5000626;28;20089;-69
2023/10/18 09:19:06;;;;;;;21.37;13.27;;;8.90;99.90;;;;;;4992984;28;20042;-68
2023/10/18 09:21:51;;;;;;;23.70;12.63;;;9.00;99.90;;;;;;4985309;28;20489;-68
2023/10/18 09:24:23;;;;;;;23.65;13.18;;;9.10;99.90;;;;;;4990758;28;20124;-68
2023/10/18 09:26:50;;;;;;;21.15;12.20;;;9.20;99.90;;;;;;5012007;28;20050;-68
2023/10/18 09:29:17;;;;;;;22.65;12.63;;;9.40;99.90;;;;;;5012886;28;20054;-68
2023/10/18 09:31:52;;;;;;;22.40;12.57;;;9.40;99.90;;;;;;4990134;28;20045;-68
2023/10/18 09:34:19;;;;;;;22.13;13.02;;;9.50;99.90;;;;;;5010634;28;20036;-68
2023/10/18 09:36:55;;;;;;;19.55;12.43;;;9.60;99.90;;;;;;4992048;28;20050;-67
2023/10/18 09:39:24;;;;;;;26.27;13.60;;;9.60;99.90;;;;;;4999297;28;20092;-68
2023/10/18 09:41:50;;;;;;;21.58;12.65;;;9.70;99.90;;;;;;4995259;28;20208;-68
2023/10/18 09:44:18;;;;;;;24.50;12.98;;;9.70;99.90;;;;;;4995179;28;20042;-68
2023/10/18 09:46:48;;;;;;;21.15;12.43;;;9.70;99.90;;;;;;4988451;28;20428;-68
2023/10/18 09:49:21;;;;;;;20.30;12.13;;;9.80;99.90;;;;;;5004425;28;20041;-68
2023/10/18 09:51:53;;;;;;;77.90;29.20;;;9.80;99.90;;;;;;4994722;28;20045;-68
2023/10/18 09:54:21;;;;;;;21.85;13.13;;;9.90;99.90;;;;;;4983492;28;20124;-68
2023/10/18 09:56:48;;;;;;;72.65;27.92;;;9.90;99.90;;;;;;4991041;28;20069;-68
2023/10/18 09:59:25;;;;;;;30.20;14.80;;;10.00;99.90;;;;;;5012087;28;20049;-68
2023/10/18 10:01:55;;;;;;;19.95;13.05;;;10.00;99.90;;;;;;4995171;28;20125;-68
2023/10/18 10:04:21;;;;;;;21.77;12.40;;;10.00;99.90;;;;;;4983274;28;20076;-68
2023/10/18 10:06:52;;;;;;;21.63;12.23;;;10.00;99.90;;;;;;4993735;28;20099;-68
2023/10/18 10:09:19;;;;;;;18.88;11.25;;;10.00;99.90;;;;;;4975905;28;20057;-68
2023/10/18 10:11:48;;;;;;;18.77;12.05;;;10.00;99.90;;;;;;5012834;28;20120;-68
2023/10/18 10:14:16;;;;;;;21.17;11.65;;;10.00;99.90;;;;;;4993974;28;20442;-68
2023/10/18 10:17:09;;;;;;;22.10;12.18;;;10.00;99.90;;;;;;5001504;28;20405;-68
2023/10/18 10:19:41;;;;;;;20.55;12.30;;;10.10;99.90;;;;;;5015457;28;20111;-68
2023/10/18 10:22:11;;;;;;;19.58;11.60;;;10.10;99.90;;;;;;4993355;28;20038;-68
2023/10/18 10:25:11;;;;;;;19.45;11.85;;;10.20;99.90;;;;;;5000278;28;20506;-68
2023/10/18 10:32:58;;;;;;;17.48;10.32;;;10.20;99.90;;;;;;4997284;28;20111;-68
2023/10/18 10:35:25;;;;;;;22.88;11.40;;;10.30;99.90;;;;;;5009413;28;20130;-68
2023/10/18 10:37:52;;;;;;;20.83;12.07;;;10.30;99.90;;;;;;5001719;28;20046;-68
2023/10/18 10:43:12;;;;;;;17.95;10.80;;;10.40;99.90;;;;;;5012462;28;20041;-71
2023/10/18 10:45:53;;;;;;;15.70;10.38;;;10.40;99.90;;;;;;4988618;28;20143;-71
2023/10/18 10:51:06;;;;;;;17.92;10.93;;;10.60;99.90;;;;;;4991677;28;20080;-72
2023/10/18 10:53:33;;;;;;;17.15;11.25;;;10.60;99.90;;;;;;4997749;28;20049;-72
2023/10/18 10:56:18;;;;;;;21.58;11.27;;;10.70;99.90;;;;;;5008210;28;20048;-71
2023/10/18 10:58:55;;;;;;;17.15;10.98;;;10.80;99.90;;;;;;5011607;28;20049;-68
2023/10/18 11:01:43;;;;;;;19.45;11.30;;;10.80;99.90;;;;;;4985151;28;20482;-68
2023/10/18 11:04:24;;;;;;;18.10;11.20;;;11.00;99.90;;;;;;4981223;28;20079;-68
2023/10/18 11:06:56;;;;;;;17.98;11.25;;;11.00;99.90;;;;;;4989102;28;20042;-71
2023/10/18 11:09:32;;;;;;;16.60;11.02;;;11.10;99.90;;;;;;5011470;28;20490;-71
2023/10/18 11:12:07;;;;;;;16.92;10.70;;;11.10;99.90;;;;;;5011839;28;20042;-70
2023/10/18 11:14:37;;;;;;;17.63;10.68;;;11.20;99.90;;;;;;5008884;28;20512;-70
2023/10/18 11:17:42;;;;;;;15.55;10.63;;;11.20;99.90;;;;;;4989996;28;20525;-71
2023/10/18 11:19:59;;;;;;;16.98;10.63;;;11.40;99.90;;;;;;4981632;28;20053;-71
2023/10/18 11:22:29;;;;;;;15.52;10.18;;;11.40;99.90;;;;;;4975916;28;20603;-71
2023/10/18 11:24:56;;;;;;;16.48;10.98;;;11.40;99.90;;;;;;4992290;28;20122;-71
2023/10/18 11:27:25;;;;;;;16.25;9.98;;;11.40;99.90;;;;;;5000141;28;20057;-70
2023/10/18 11:29:55;;;;;;;20.35;10.70;;;11.40;99.90;;;;;;4982655;28;20417;-71
2023/10/18 11:32:27;;;;;;;15.15;9.73;;;11.40;99.90;;;;;;4977811;28;20037;-71
2023/10/18 11:35:10;;;;;;;16.42;10.40;;;11.40;99.90;;;;;;4995729;28;20050;-71
2023/10/18 11:37:38;;;;;;;18.92;9.55;;;11.40;99.90;;;;;;4986471;28;20117;-72
2023/10/18 11:40:29;;;;;;;15.55;9.63;;;11.50;99.90;;;;;;4992635;28;20383;-71
2023/10/18 11:43:05;;;;;;;16.17;10.00;;;11.50;99.90;;;;;;5001928;28;20053;-70
2023/10/18 11:45:36;;;;;;;17.85;10.25;;;11.50;99.90;;;;;;4996440;28;20438;-71
2023/10/18 11:48:06;;;;;;;14.32;9.50;;;11.50;99.90;;;;;;4976677;28;20053;-70
2023/10/18 11:50:47;;;;;;;15.48;10.35;;;11.50;99.90;;;;;;5002201;28;20112;-71
2023/10/18 11:53:15;;;;;;;15.55;9.73;;;11.70;99.90;;;;;;5006229;28;20042;-71
2023/10/18 11:55:57;;;;;;;16.45;9.95;;;11.60;99.90;;;;;;4995126;28;20687;-72
2023/10/18 11:58:24;;;;;;;15.05;9.85;;;11.70;99.90;;;;;;5003570;28;20046;-72
2023/10/18 12:00:55;;;;;;;16.20;9.73;;;11.80;99.90;;;;;;5003762;28;20052;-71
2023/10/18 12:03:23;;;;;;;16.92;9.98;;;11.80;99.90;;;;;;4979228;28;20037;-70
2023/10/18 12:05:50;;;;;;;15.13;9.70;;;11.90;99.90;;;;;;5080774;22;20041;-67
2023/10/18 12:13:26;;;;;;;16.30;9.52;;;12.00;99.90;;;;;;6164420;22;20007;-66
2023/10/18 12:15:52;;;;;;;15.45;9.85;;;12.00;99.90;;;;;;5043905;28;20287;-66
2023/10/18 12:18:21;;;;;;;17.52;10.18;;;12.10;99.90;;;;;;5022168;28;20037;-66
2023/10/18 12:20:46;;;;;;;15.35;9.52;;;12.00;99.90;;;;;;5036970;28;20038;-66
2023/10/18 12:23:13;;;;;;;15.45;9.23;;;12.10;99.90;;;;;;5027784;28;20105;-66
2023/10/18 12:25:42;;;;;;;14.55;9.77;;;12.10;99.90;;;;;;5035885;28;20052;-66
2023/10/18 12:28:30;;;;;;;14.43;9.13;;;12.10;99.90;;;;;;5036617;28;20191;-67
2023/10/18 12:31:00;;;;;;;14.90;9.98;;;12.20;99.90;;;;;;5040093;28;20044;-68
2023/10/18 12:33:28;;;;;;;13.13;9.07;;;12.30;99.90;;;;;;5048588;28;20041;-67
2023/10/18 12:35:59;;;;;;;13.90;8.80;;;12.40;99.90;;;;;;5045571;28;20037;-69
2023/10/18 12:38:32;;;;;;;14.45;9.20;;;12.50;99.90;;;;;;5026905;28;20041;-70
2023/10/18 12:41:05;;;;;;;14.68;9.32;;;12.50;99.90;;;;;;5017070;28;20120;-73
2023/10/18 12:43:44;;;;;;;14.45;9.57;;;12.50;99.90;;;;;;5007082;28;20459;-70
2023/10/18 12:46:15;;;;;;;14.60;9.50;;;12.60;99.90;;;;;;5025177;28;20037;-68
2023/10/18 12:48:44;;;;;;;14.77;9.77;;;12.60;99.90;;;;;;5041655;28;20513;-69
2023/10/18 12:51:12;;;;;;;13.77;9.25;;;12.60;99.90;;;;;;5017940;28;20047;-68
2023/10/18 12:53:48;;;;;;;14.55;9.38;;;12.60;99.90;;;;;;5022910;28;20382;-68
2023/10/18 12:58:59;;;;;;;13.10;8.85;;;12.80;99.90;;;;;;5029177;28;20072;-68
2023/10/18 13:01:33;;;;;;;14.90;9.50;;;12.80;99.90;;;;;;5035993;28;20033;-68
2023/10/18 13:03:59;;;;;;;14.13;9.30;;;12.80;99.90;;;;;;5059695;28;20048;-71
2023/10/18 13:06:35;;;;;;;14.70;9.45;;;12.80;99.90;;;;;;5018081;28;20036;-74
2023/10/18 13:14:31;;;;;;;15.18;10.13;;;12.70;99.90;;;;;;5021782;28;20401;-70
2023/10/18 13:16:59;;;;;;;16.05;9.70;;;12.70;99.90;;;;;;5010847;28;20045;-70
2023/10/18 13:19:27;;;;;;;14.65;9.57;;;12.70;99.90;;;;;;5015928;28;20066;-73
2023/10/18 13:21:53;;;;;;;15.52;10.15;;;12.70;99.90;;;;;;5023932;28;20063;-71
2023/10/18 13:26:51;;;;;;;14.43;9.32;;;12.60;99.90;;;;;;5040143;28;20056;-72
2023/10/18 13:31:57;;;;;;;14.32;9.30;;;12.50;99.90;;;;;;5018468;28;20049;-74
2023/10/18 13:34:23;;;;;;;14.33;10.03;;;12.50;99.90;;;;;;5037801;28;20041;-72
2023/10/18 13:36:54;;;;;;;14.60;10.00;;;12.50;99.90;;;;;;5040868;28;20048;-71
2023/10/18 13:39:23;;;;;;;16.33;9.95;;;12.50;99.90;;;;;;5038088;28;20454;-73
2023/10/18 13:41:49;;;;;;;16.70;10.15;;;12.50;99.90;;;;;;5034221;28;20120;-73
2023/10/18 13:44:19;;;;;;;17.42;10.23;;;12.40;99.90;;;;;;5028259;28;20041;-71
2023/10/18 13:46:50;;;;;;;17.73;10.85;;;12.40;99.90;;;;;;5016837;28;20603;-72
2023/10/18 13:49:19;;;;;;;;;;;12.30;99.90;;;;;;5028785;28;20072;-72
2023/10/18 13:51:48;;;;;;;14.80;9.57;;;12.30;99.90;;;;;;5023479;28;19917;-72
2023/10/18 13:54:14;;;;;;;14.85;10.30;;;12.20;99.90;;;;;;5016908;28;20053;-74
2023/10/18 13:56:40;;;;;;;14.57;10.00;;;12.30;99.90;;;;;;5042630;28;20415;-72
2023/10/18 13:59:05;;;;;;;17.70;9.65;;;12.30;99.90;;;;;;5021884;28;20076;-71
2023/10/18 14:01:31;;;;;;;14.88;10.30;;;12.20;99.90;;;;;;5017013;28;20037;-71
2023/10/18 14:04:01;;;;;;;15.48;9.85;;;12.20;99.90;;;;;;5019154;28;20032;-72
2023/10/18 14:06:30;;;;;;;14.40;9.75;;;12.10;99.90;;;;;;5026353;28;20778;-71